sensor_id;sensor_type;location;lat;lon;timestamp;P1;durP1;ratioP1;P2;durP2;ratioP2
65759;SDS011;52496;51.082;5.066;2023-09-18T00:01:46;7.18;;;4.50;;
65759;SDS011;52496;51.082;5.066;2023-09-18T00:04:17;7.63;;;4.75;;
65759;SDS011;52496;51.082;5.066;2023-09-18T00:06:47;8.18;;;4.60;;
65759;SDS011;52496;51.082;5.066;2023-09-18T00:09:18;9.10;;;5.68;;
65759;SDS011;52496;51.082;5.066;2023-09-18T00:11:48;7.18;;;4.28;;
65759;SDS011;52496;51.082;5.066;2023-09-18T00:14:19;11.07;;;5.25;;
65759;SDS011;52496;51.082;5.066;2023-09-18T00:16:49;10.10;;;5.38;;
65759;SDS011;52496;51.082;5.066;2023-09-18T00:19:21;10.20;;;5.43;;
65759;SDS011;52496;51.082;5.066;2023-09-18T00:21:52;10.38;;;5.65;;
65759;SDS011;52496;51.082;5.066;2023-09-18T00:24:22;11.13;;;5.18;;
65759;SDS011;52496;51.082;5.066;2023-09-18T00:26:53;10.32;;;4.85;;
65759;SDS011;52496;51.082;5.066;2023-09-18T00:29:24;8.85;;;5.45;;
65759;SDS011;52496;51.082;5.066;2023-09-18T00:31:54;11.13;;;5.20;;
65759;SDS011;52496;51.082;5.066;2023-09-18T00:34:24;9.38;;;4.90;;
65759;SDS011;52496;51.082;5.066;2023-09-18T00:36:55;10.70;;;4.95;;
65759;SDS011;52496;51.082;5.066;2023-09-18T00:39:26;10.88;;;5.45;;
65759;SDS011;52496;51.082;5.066;2023-09-18T00:41:56;8.95;;;5.05;;
65759;SDS011;52496;51.082;5.066;2023-09-18T00:44:27;20.95;;;5.95;;
65759;SDS011;52496;51.082;5.066;2023-09-18T00:46:57;10.05;;;5.30;;
65759;SDS011;52496;51.082;5.066;2023-09-18T00:49:28;9.10;;;5.70;;
65759;SDS011;52496;51.082;5.066;2023-09-18T00:51:58;12.38;;;5.90;;
65759;SDS011;52496;51.082;5.066;2023-09-18T00:54:29;9.38;;;4.68;;
65759;SDS011;52496;51.082;5.066;2023-09-18T00:57:01;11.82;;;4.95;;
65759;SDS011;52496;51.082;5.066;2023-09-18T00:59:32;10.55;;;5.28;;
65759;SDS011;52496;51.082;5.066;2023-09-18T01:02:03;11.07;;;5.38;;
65759;SDS011;52496;51.082;5.066;2023-09-18T01:04:34;9.52;;;5.18;;
65759;SDS011;52496;51.082;5.066;2023-09-18T01:07:04;11.48;;;5.57;;
65759;SDS011;52496;51.082;5.066;2023-09-18T01:09:35;10.73;;;5.68;;
65759;SDS011;52496;51.082;5.066;2023-09-18T01:17:46;11.25;;;5.30;;
65759;SDS011;52496;51.082;5.066;2023-09-18T01:20:17;10.13;;;5.32;;
65759;SDS011;52496;51.082;5.066;2023-09-18T01:22:47;10.30;;;4.45;;
65759;SDS011;52496;51.082;5.066;2023-09-18T01:25:19;12.63;;;6.13;;
65759;SDS011;52496;51.082;5.066;2023-09-18T01:27:50;7.15;;;4.45;;
65759;SDS011;52496;51.082;5.066;2023-09-18T01:30:21;8.23;;;4.80;;
65759;SDS011;52496;51.082;5.066;2023-09-18T01:32:54;9.98;;;4.70;;
65759;SDS011;52496;51.082;5.066;2023-09-18T01:35:28;11.68;;;5.13;;
65759;SDS011;52496;51.082;5.066;2023-09-18T01:38:01;10.77;;;5.43;;
65759;SDS011;52496;51.082;5.066;2023-09-18T01:40:33;13.07;;;5.53;;
65759;SDS011;52496;51.082;5.066;2023-09-18T01:43:04;10.30;;;5.35;;
65759;SDS011;52496;51.082;5.066;2023-09-18T01:45:34;10.77;;;5.20;;
65759;SDS011;52496;51.082;5.066;2023-09-18T01:48:06;10.48;;;5.30;;
65759;SDS011;52496;51.082;5.066;2023-09-18T01:50:36;9.90;;;5.15;;
65759;SDS011;52496;51.082;5.066;2023-09-18T01:53:07;12.20;;;4.72;;
65759;SDS011;52496;51.082;5.066;2023-09-18T01:55:38;11.30;;;6.30;;
65759;SDS011;52496;51.082;5.066;2023-09-18T01:58:08;9.98;;;5.38;;
65759;SDS011;52496;51.082;5.066;2023-09-18T02:00:39;11.98;;;5.43;;
65759;SDS011;52496;51.082;5.066;2023-09-18T02:03:10;10.13;;;6.32;;
65759;SDS011;52496;51.082;5.066;2023-09-18T02:05:40;8.88;;;5.47;;
65759;SDS011;52496;51.082;5.066;2023-09-18T02:08:11;11.20;;;5.30;;
65759;SDS011;52496;51.082;5.066;2023-09-18T02:10:42;11.95;;;5.95;;
65759;SDS011;52496;51.082;5.066;2023-09-18T02:13:12;9.10;;;5.35;;
65759;SDS011;52496;51.082;5.066;2023-09-18T02:15:43;12.93;;;6.53;;
65759;SDS011;52496;51.082;5.066;2023-09-18T02:18:15;9.52;;;6.22;;
65759;SDS011;52496;51.082;5.066;2023-09-18T02:20:46;11.23;;;5.57;;
65759;SDS011;52496;51.082;5.066;2023-09-18T02:23:18;16.45;;;5.55;;
65759;SDS011;52496;51.082;5.066;2023-09-18T05:36:48;3.97;;;2.00;;
65759;SDS011;52496;51.082;5.066;2023-09-18T05:39:18;4.07;;;2.10;;
65759;SDS011;52496;51.082;5.066;2023-09-18T05:41:49;7.70;;;2.30;;
65759;SDS011;52496;51.082;5.066;2023-09-18T05:44:20;3.92;;;1.95;;
65759;SDS011;52496;51.082;5.066;2023-09-18T05:46:50;5.75;;;2.03;;
65759;SDS011;52496;51.082;5.066;2023-09-18T05:49:21;6.95;;;2.55;;
65759;SDS011;52496;51.082;5.066;2023-09-18T05:51:52;5.05;;;1.90;;
65759;SDS011;52496;51.082;5.066;2023-09-18T05:54:23;4.88;;;2.30;;
65759;SDS011;52496;51.082;5.066;2023-09-18T05:56:53;4.30;;;2.05;;
65759;SDS011;52496;51.082;5.066;2023-09-18T05:59:23;5.70;;;2.03;;
65759;SDS011;52496;51.082;5.066;2023-09-18T06:01:54;4.70;;;1.90;;
65759;SDS011;52496;51.082;5.066;2023-09-18T06:04:24;5.47;;;2.28;;
65759;SDS011;52496;51.082;5.066;2023-09-18T06:06:55;4.38;;;1.90;;
65759;SDS011;52496;51.082;5.066;2023-09-18T06:09:26;5.05;;;1.88;;
65759;SDS011;52496;51.082;5.066;2023-09-18T06:11:57;3.90;;;2.05;;
65759;SDS011;52496;51.082;5.066;2023-09-18T06:14:29;3.85;;;2.10;;
65759;SDS011;52496;51.082;5.066;2023-09-18T06:17:00;4.00;;;2.25;;
65759;SDS011;52496;51.082;5.066;2023-09-18T06:19:30;8.38;;;2.00;;
65759;SDS011;52496;51.082;5.066;2023-09-18T06:22:01;3.22;;;1.98;;
65759;SDS011;52496;51.082;5.066;2023-09-18T06:24:32;4.00;;;2.17;;
65759;SDS011;52496;51.082;5.066;2023-09-18T06:27:02;5.38;;;2.08;;
65759;SDS011;52496;51.082;5.066;2023-09-18T06:29:36;3.25;;;1.65;;
65759;SDS011;52496;51.082;5.066;2023-09-18T06:32:08;4.97;;;2.22;;
65759;SDS011;52496;51.082;5.066;2023-09-18T06:34:39;8.20;;;2.42;;
65759;SDS011;52496;51.082;5.066;2023-09-18T06:37:13;5.18;;;2.20;;
65759;SDS011;52496;51.082;5.066;2023-09-18T06:39:43;8.77;;;2.10;;
65759;SDS011;52496;51.082;5.066;2023-09-18T06:42:13;4.28;;;2.00;;
65759;SDS011;52496;51.082;5.066;2023-09-18T06:44:44;4.82;;;2.42;;
65759;SDS011;52496;51.082;5.066;2023-09-18T06:47:15;3.92;;;1.92;;
65759;SDS011;52496;51.082;5.066;2023-09-18T06:49:45;2.92;;;1.90;;
65759;SDS011;52496;51.082;5.066;2023-09-18T06:52:17;6.90;;;2.25;;
65759;SDS011;52496;51.082;5.066;2023-09-18T06:54:47;4.15;;;2.17;;
65759;SDS011;52496;51.082;5.066;2023-09-18T06:57:18;15.55;;;2.72;;
65759;SDS011;52496;51.082;5.066;2023-09-18T06:59:49;7.85;;;2.30;;
65759;SDS011;52496;51.082;5.066;2023-09-18T07:02:21;4.97;;;2.20;;
65759;SDS011;52496;51.082;5.066;2023-09-18T07:04:52;6.55;;;2.15;;
65759;SDS011;52496;51.082;5.066;2023-09-18T07:07:22;5.53;;;2.20;;
65759;SDS011;52496;51.082;5.066;2023-09-18T07:09:55;6.38;;;2.08;;
65759;SDS011;52496;51.082;5.066;2023-09-18T07:12:26;5.22;;;2.53;;
65759;SDS011;52496;51.082;5.066;2023-09-18T07:14:58;7.78;;;2.17;;
65759;SDS011;52496;51.082;5.066;2023-09-18T07:17:34;5.55;;;1.80;;
65759;SDS011;52496;51.082;5.066;2023-09-18T07:20:05;7.28;;;2.13;;
65759;SDS011;52496;51.082;5.066;2023-09-18T07:22:45;3.85;;;1.70;;
65759;SDS011;52496;51.082;5.066;2023-09-18T07:25:17;4.72;;;1.85;;
65759;SDS011;52496;51.082;5.066;2023-09-18T07:27:47;3.15;;;1.60;;
65759;SDS011;52496;51.082;5.066;2023-09-18T07:30:18;2.90;;;1.65;;
65759;SDS011;52496;51.082;5.066;2023-09-18T07:32:50;5.18;;;2.10;;
65759;SDS011;52496;51.082;5.066;2023-09-18T07:35:21;5.03;;;2.55;;
65759;SDS011;52496;51.082;5.066;2023-09-18T07:37:52;3.75;;;1.77;;
65759;SDS011;52496;51.082;5.066;2023-09-18T07:40:23;6.18;;;1.85;;
65759;SDS011;52496;51.082;5.066;2023-09-18T07:42:53;5.15;;;2.10;;
65759;SDS011;52496;51.082;5.066;2023-09-18T07:45:23;9.23;;;2.22;;
65759;SDS011;52496;51.082;5.066;2023-09-18T07:47:54;6.47;;;2.15;;
65759;SDS011;52496;51.082;5.066;2023-09-18T07:50:24;5.55;;;2.25;;
65759;SDS011;52496;51.082;5.066;2023-09-18T07:52:55;5.13;;;2.40;;
65759;SDS011;52496;51.082;5.066;2023-09-18T07:55:25;4.43;;;2.30;;
65759;SDS011;52496;51.082;5.066;2023-09-18T07:57:56;8.93;;;2.40;;
65759;SDS011;52496;51.082;5.066;2023-09-18T08:00:28;4.78;;;2.28;;
65759;SDS011;52496;51.082;5.066;2023-09-18T08:02:58;3.95;;;2.00;;
65759;SDS011;52496;51.082;5.066;2023-09-18T08:05:31;5.53;;;2.20;;
65759;SDS011;52496;51.082;5.066;2023-09-18T08:08:01;5.40;;;2.28;;
65759;SDS011;52496;51.082;5.066;2023-09-18T08:10:36;5.03;;;2.42;;
65759;SDS011;52496;51.082;5.066;2023-09-18T08:13:07;5.82;;;2.40;;
65759;SDS011;52496;51.082;5.066;2023-09-18T08:15:39;4.68;;;2.25;;
65759;SDS011;52496;51.082;5.066;2023-09-18T08:18:10;4.13;;;2.13;;
65759;SDS011;52496;51.082;5.066;2023-09-18T08:20:43;4.60;;;2.10;;
65759;SDS011;52496;51.082;5.066;2023-09-18T08:23:14;6.18;;;2.58;;
65759;SDS011;52496;51.082;5.066;2023-09-18T08:25:44;5.93;;;2.70;;
65759;SDS011;52496;51.082;5.066;2023-09-18T08:28:14;10.10;;;2.50;;
65759;SDS011;52496;51.082;5.066;2023-09-18T08:30:45;6.10;;;2.10;;
65759;SDS011;52496;51.082;5.066;2023-09-18T08:33:17;8.23;;;3.05;;
65759;SDS011;52496;51.082;5.066;2023-09-18T08:35:47;6.75;;;2.85;;
65759;SDS011;52496;51.082;5.066;2023-09-18T08:38:19;7.18;;;2.78;;
65759;SDS011;52496;51.082;5.066;2023-09-18T08:40:53;9.20;;;2.60;;
65759;SDS011;52496;51.082;5.066;2023-09-18T08:43:24;4.28;;;2.28;;
65759;SDS011;52496;51.082;5.066;2023-09-18T08:45:55;4.45;;;2.15;;
65759;SDS011;52496;51.082;5.066;2023-09-18T08:48:31;6.32;;;2.38;;
65759;SDS011;52496;51.082;5.066;2023-09-18T08:51:05;4.30;;;2.10;;
65759;SDS011;52496;51.082;5.066;2023-09-18T08:53:36;5.35;;;2.30;;
65759;SDS011;52496;51.082;5.066;2023-09-18T08:56:06;3.85;;;1.95;;
65759;SDS011;52496;51.082;5.066;2023-09-18T08:58:39;3.92;;;1.85;;
65759;SDS011;52496;51.082;5.066;2023-09-18T09:01:12;3.75;;;2.15;;
65759;SDS011;52496;51.082;5.066;2023-09-18T09:03:43;3.90;;;1.98;;
65759;SDS011;52496;51.082;5.066;2023-09-18T09:06:16;4.45;;;2.28;;
65759;SDS011;52496;51.082;5.066;2023-09-18T09:08:47;3.15;;;1.98;;
65759;SDS011;52496;51.082;5.066;2023-09-18T09:11:17;5.15;;;2.20;;
65759;SDS011;52496;51.082;5.066;2023-09-18T09:16:46;4.90;;;2.47;;
65759;SDS011;52496;51.082;5.066;2023-09-18T09:19:28;9.13;;;2.92;;
65759;SDS011;52496;51.082;5.066;2023-09-18T09:22:02;9.25;;;1.95;;
65759;SDS011;52496;51.082;5.066;2023-09-18T09:24:42;5.78;;;2.30;;
65759;SDS011;52496;51.082;5.066;2023-09-18T09:27:13;7.30;;;2.28;;
65759;SDS011;52496;51.082;5.066;2023-09-18T09:29:57;6.05;;;3.22;;
65759;SDS011;52496;51.082;5.066;2023-09-18T09:32:29;4.05;;;2.25;;
65759;SDS011;52496;51.082;5.066;2023-09-18T09:35:03;5.28;;;2.58;;
65759;SDS011;52496;51.082;5.066;2023-09-18T09:37:37;5.45;;;2.47;;
65759;SDS011;52496;51.082;5.066;2023-09-18T09:40:08;6.68;;;2.55;;
65759;SDS011;52496;51.082;5.066;2023-09-18T09:42:44;3.45;;;2.25;;
65759;SDS011;52496;51.082;5.066;2023-09-18T09:45:16;5.43;;;2.70;;
65759;SDS011;52496;51.082;5.066;2023-09-18T09:47:47;3.95;;;2.20;;
65759;SDS011;52496;51.082;5.066;2023-09-18T09:50:17;3.72;;;1.98;;
65759;SDS011;52496;51.082;5.066;2023-09-18T09:52:50;8.00;;;2.40;;
65759;SDS011;52496;51.082;5.066;2023-09-18T09:55:31;8.18;;;2.78;;
65759;SDS011;52496;51.082;5.066;2023-09-18T09:58:04;6.22;;;2.60;;
65759;SDS011;52496;51.082;5.066;2023-09-18T10:00:36;5.05;;;2.40;;
65759;SDS011;52496;51.082;5.066;2023-09-18T10:03:14;7.03;;;2.75;;
65759;SDS011;52496;51.082;5.066;2023-09-18T10:05:50;4.80;;;2.55;;
65759;SDS011;52496;51.082;5.066;2023-09-18T10:08:22;3.85;;;2.30;;
65759;SDS011;52496;51.082;5.066;2023-09-18T10:11:00;12.35;;;2.78;;
65759;SDS011;52496;51.082;5.066;2023-09-18T10:13:44;7.60;;;2.50;;
65759;SDS011;52496;51.082;5.066;2023-09-18T10:16:18;7.63;;;2.53;;
65759;SDS011;52496;51.082;5.066;2023-09-18T10:21:41;5.68;;;2.20;;
65759;SDS011;52496;51.082;5.066;2023-09-18T10:24:23;3.58;;;2.38;;
65759;SDS011;52496;51.082;5.066;2023-09-18T10:26:55;7.25;;;3.42;;
65759;SDS011;52496;51.082;5.066;2023-09-18T10:29:28;6.47;;;2.28;;
65759;SDS011;52496;51.082;5.066;2023-09-18T10:32:02;4.63;;;2.55;;
65759;SDS011;52496;51.082;5.066;2023-09-18T10:34:34;6.38;;;2.33;;
65759;SDS011;52496;51.082;5.066;2023-09-18T10:37:06;6.10;;;2.10;;
65759;SDS011;52496;51.082;5.066;2023-09-18T10:39:38;6.15;;;2.60;;
65759;SDS011;52496;51.082;5.066;2023-09-18T10:42:10;6.43;;;2.25;;
65759;SDS011;52496;51.082;5.066;2023-09-18T10:44:42;5.20;;;2.30;;
65759;SDS011;52496;51.082;5.066;2023-09-18T10:47:13;4.45;;;2.20;;
65759;SDS011;52496;51.082;5.066;2023-09-18T10:49:44;8.50;;;2.72;;
65759;SDS011;52496;51.082;5.066;2023-09-18T10:52:15;5.00;;;2.40;;
65759;SDS011;52496;51.082;5.066;2023-09-18T10:54:45;6.68;;;2.55;;
65759;SDS011;52496;51.082;5.066;2023-09-18T10:57:16;4.93;;;2.45;;
65759;SDS011;52496;51.082;5.066;2023-09-18T10:59:46;4.75;;;2.58;;
65759;SDS011;52496;51.082;5.066;2023-09-18T11:02:17;5.97;;;2.50;;
65759;SDS011;52496;51.082;5.066;2023-09-18T11:04:47;4.03;;;2.10;;
65759;SDS011;52496;51.082;5.066;2023-09-18T11:07:21;6.50;;;2.53;;
65759;SDS011;52496;51.082;5.066;2023-09-18T11:09:52;3.75;;;2.20;;
65759;SDS011;52496;51.082;5.066;2023-09-18T11:12:23;6.30;;;2.35;;
65759;SDS011;52496;51.082;5.066;2023-09-18T11:18:01;4.85;;;2.53;;
65759;SDS011;52496;51.082;5.066;2023-09-18T11:20:35;5.43;;;2.40;;
65759;SDS011;52496;51.082;5.066;2023-09-18T11:23:15;4.72;;;2.10;;
65759;SDS011;52496;51.082;5.066;2023-09-18T11:25:48;5.13;;;2.10;;
65759;SDS011;52496;51.082;5.066;2023-09-18T11:28:22;3.63;;;2.25;;
65759;SDS011;52496;51.082;5.066;2023-09-18T11:30:58;6.10;;;2.60;;
65759;SDS011;52496;51.082;5.066;2023-09-18T11:33:31;6.57;;;2.35;;
65759;SDS011;52496;51.082;5.066;2023-09-18T11:36:11;6.13;;;2.17;;
65759;SDS011;52496;51.082;5.066;2023-09-18T11:39:02;4.18;;;2.53;;
65759;SDS011;52496;51.082;5.066;2023-09-18T11:41:34;5.13;;;2.38;;
65759;SDS011;52496;51.082;5.066;2023-09-18T11:46:47;3.50;;;2.10;;
65759;SDS011;52496;51.082;5.066;2023-09-18T11:49:20;4.63;;;2.40;;
65759;SDS011;52496;51.082;5.066;2023-09-18T11:51:52;4.45;;;2.30;;
65759;SDS011;52496;51.082;5.066;2023-09-18T11:54:23;4.43;;;2.33;;
65759;SDS011;52496;51.082;5.066;2023-09-18T11:56:54;4.28;;;2.35;;
65759;SDS011;52496;51.082;5.066;2023-09-18T11:59:34;4.43;;;2.53;;
65759;SDS011;52496;51.082;5.066;2023-09-18T12:02:07;5.47;;;2.90;;
65759;SDS011;52496;51.082;5.066;2023-09-18T12:04:38;4.72;;;2.00;;
65759;SDS011;52496;51.082;5.066;2023-09-18T12:07:09;5.22;;;2.22;;
65759;SDS011;52496;51.082;5.066;2023-09-18T12:09:40;4.68;;;2.53;;
65759;SDS011;52496;51.082;5.066;2023-09-18T12:12:10;4.30;;;2.20;;
65759;SDS011;52496;51.082;5.066;2023-09-18T12:14:44;5.75;;;2.28;;
65759;SDS011;52496;51.082;5.066;2023-09-18T12:17:17;3.70;;;2.15;;
65759;SDS011;52496;51.082;5.066;2023-09-18T12:19:54;4.63;;;2.33;;
65759;SDS011;52496;51.082;5.066;2023-09-18T12:22:28;5.53;;;2.33;;
65759;SDS011;52496;51.082;5.066;2023-09-18T12:25:13;5.57;;;2.47;;
65759;SDS011;52496;51.082;5.066;2023-09-18T12:27:45;9.60;;;2.60;;
65759;SDS011;52496;51.082;5.066;2023-09-18T12:30:15;5.35;;;2.30;;
65759;SDS011;52496;51.082;5.066;2023-09-18T12:32:50;3.97;;;2.20;;
65759;SDS011;52496;51.082;5.066;2023-09-18T12:35:21;3.22;;;2.10;;
65759;SDS011;52496;51.082;5.066;2023-09-18T12:37:53;4.25;;;2.75;;
65759;SDS011;52496;51.082;5.066;2023-09-18T12:40:27;7.38;;;2.50;;
65759;SDS011;52496;51.082;5.066;2023-09-18T12:42:58;5.65;;;2.53;;
65759;SDS011;52496;51.082;5.066;2023-09-18T12:45:30;5.05;;;2.38;;
65759;SDS011;52496;51.082;5.066;2023-09-18T12:48:00;4.35;;;2.22;;
65759;SDS011;52496;51.082;5.066;2023-09-18T12:50:32;3.33;;;2.10;;
65759;SDS011;52496;51.082;5.066;2023-09-18T12:53:11;4.63;;;2.47;;
65759;SDS011;52496;51.082;5.066;2023-09-18T12:55:43;2.75;;;1.90;;
65759;SDS011;52496;51.082;5.066;2023-09-18T12:58:17;3.92;;;1.90;;
65759;SDS011;52496;51.082;5.066;2023-09-18T13:00:49;4.38;;;2.00;;
65759;SDS011;52496;51.082;5.066;2023-09-18T13:03:20;3.65;;;1.98;;
65759;SDS011;52496;51.082;5.066;2023-09-18T13:05:51;4.22;;;2.00;;
65759;SDS011;52496;51.082;5.066;2023-09-18T13:08:24;3.45;;;2.08;;
65759;SDS011;52496;51.082;5.066;2023-09-18T13:10:55;4.60;;;2.33;;
65759;SDS011;52496;51.082;5.066;2023-09-18T13:13:25;3.72;;;2.00;;
65759;SDS011;52496;51.082;5.066;2023-09-18T13:15:59;4.82;;;2.20;;
65759;SDS011;52496;51.082;5.066;2023-09-18T13:18:34;2.75;;;1.70;;
65759;SDS011;52496;51.082;5.066;2023-09-18T13:21:11;4.82;;;1.95;;
65759;SDS011;52496;51.082;5.066;2023-09-18T13:23:43;3.00;;;1.80;;
65759;SDS011;52496;51.082;5.066;2023-09-18T13:26:14;3.67;;;2.13;;
65759;SDS011;52496;51.082;5.066;2023-09-18T13:28:44;5.60;;;2.28;;
65759;SDS011;52496;51.082;5.066;2023-09-18T13:31:15;3.88;;;1.90;;
65759;SDS011;52496;51.082;5.066;2023-09-18T13:33:45;5.85;;;2.10;;
65759;SDS011;52496;51.082;5.066;2023-09-18T13:36:16;3.75;;;1.85;;
65759;SDS011;52496;51.082;5.066;2023-09-18T13:38:46;5.32;;;2.00;;
65759;SDS011;52496;51.082;5.066;2023-09-18T13:41:17;4.65;;;1.88;;
65759;SDS011;52496;51.082;5.066;2023-09-18T13:43:47;2.72;;;1.80;;
65759;SDS011;52496;51.082;5.066;2023-09-18T13:46:18;4.45;;;2.00;;
65759;SDS011;52496;51.082;5.066;2023-09-18T13:48:49;4.20;;;2.40;;
65759;SDS011;52496;51.082;5.066;2023-09-18T13:51:21;3.78;;;1.98;;
65759;SDS011;52496;51.082;5.066;2023-09-18T13:53:51;3.35;;;1.80;;
65759;SDS011;52496;51.082;5.066;2023-09-18T13:56:22;5.72;;;1.85;;
65759;SDS011;52496;51.082;5.066;2023-09-18T13:58:52;5.18;;;2.20;;
65759;SDS011;52496;51.082;5.066;2023-09-18T14:01:23;3.88;;;1.77;;
65759;SDS011;52496;51.082;5.066;2023-09-18T14:03:58;2.90;;;1.65;;
65759;SDS011;52496;51.082;5.066;2023-09-18T14:06:28;5.68;;;1.88;;
65759;SDS011;52496;51.082;5.066;2023-09-18T14:08:59;4.93;;;2.10;;
65759;SDS011;52496;51.082;5.066;2023-09-18T14:11:29;6.18;;;1.90;;
65759;SDS011;52496;51.082;5.066;2023-09-18T14:14:01;4.72;;;3.63;;
65759;SDS011;52496;51.082;5.066;2023-09-18T14:16:31;6.38;;;2.08;;
65759;SDS011;52496;51.082;5.066;2023-09-18T14:19:03;4.53;;;1.80;;
65759;SDS011;52496;51.082;5.066;2023-09-18T14:21:34;3.03;;;1.60;;
65759;SDS011;52496;51.082;5.066;2023-09-18T14:24:06;3.42;;;1.63;;
65759;SDS011;52496;51.082;5.066;2023-09-18T14:26:37;2.80;;;1.75;;
65759;SDS011;52496;51.082;5.066;2023-09-18T14:29:10;2.15;;;1.65;;
65759;SDS011;52496;51.082;5.066;2023-09-18T14:31:41;5.93;;;2.10;;
65759;SDS011;52496;51.082;5.066;2023-09-18T14:34:12;3.45;;;1.98;;
65759;SDS011;52496;51.082;5.066;2023-09-18T14:36:42;4.40;;;2.03;;
65759;SDS011;52496;51.082;5.066;2023-09-18T14:39:13;3.53;;;2.00;;
65759;SDS011;52496;51.082;5.066;2023-09-18T14:41:43;4.53;;;1.63;;
65759;SDS011;52496;51.082;5.066;2023-09-18T14:44:14;4.65;;;1.98;;
65759;SDS011;52496;51.082;5.066;2023-09-18T14:46:45;4.15;;;2.05;;
65759;SDS011;52496;51.082;5.066;2023-09-18T14:49:15;6.30;;;2.50;;
65759;SDS011;52496;51.082;5.066;2023-09-18T14:51:46;4.20;;;1.85;;
65759;SDS011;52496;51.082;5.066;2023-09-18T14:54:17;3.55;;;2.20;;
65759;SDS011;52496;51.082;5.066;2023-09-18T14:56:47;3.38;;;1.52;;
65759;SDS011;52496;51.082;5.066;2023-09-18T14:59:18;2.67;;;1.63;;
65759;SDS011;52496;51.082;5.066;2023-09-18T15:01:48;3.13;;;1.70;;
65759;SDS011;52496;51.082;5.066;2023-09-18T15:04:19;3.60;;;2.00;;
65759;SDS011;52496;51.082;5.066;2023-09-18T15:06:49;4.35;;;1.70;;
65759;SDS011;52496;51.082;5.066;2023-09-18T15:09:20;5.07;;;1.85;;
65759;SDS011;52496;51.082;5.066;2023-09-18T15:11:50;6.38;;;2.00;;
65759;SDS011;52496;51.082;5.066;2023-09-18T15:14:21;6.28;;;1.98;;
65759;SDS011;52496;51.082;5.066;2023-09-18T15:16:52;4.50;;;1.98;;
65759;SDS011;52496;51.082;5.066;2023-09-18T15:19:25;3.15;;;1.90;;
65759;SDS011;52496;51.082;5.066;2023-09-18T15:21:56;3.50;;;1.90;;
65759;SDS011;52496;51.082;5.066;2023-09-18T15:24:28;3.92;;;1.88;;
65759;SDS011;52496;51.082;5.066;2023-09-18T15:26:58;8.07;;;1.80;;
65759;SDS011;52496;51.082;5.066;2023-09-18T15:29:29;13.35;;;2.50;;
65759;SDS011;52496;51.082;5.066;2023-09-18T15:32:01;10.10;;;1.85;;
65759;SDS011;52496;51.082;5.066;2023-09-18T15:34:32;4.75;;;1.58;;
65759;SDS011;52496;51.082;5.066;2023-09-18T15:37:03;10.80;;;2.28;;
65759;SDS011;52496;51.082;5.066;2023-09-18T15:39:34;5.07;;;2.00;;
65759;SDS011;52496;51.082;5.066;2023-09-18T15:42:05;4.38;;;1.80;;
65759;SDS011;52496;51.082;5.066;2023-09-18T15:44:35;4.70;;;2.45;;
65759;SDS011;52496;51.082;5.066;2023-09-18T15:47:06;4.00;;;2.05;;
65759;SDS011;52496;51.082;5.066;2023-09-18T15:49:37;5.07;;;2.15;;
65759;SDS011;52496;51.082;5.066;2023-09-18T15:52:07;4.18;;;1.88;;
65759;SDS011;52496;51.082;5.066;2023-09-18T15:54:38;6.43;;;2.08;;
65759;SDS011;52496;51.082;5.066;2023-09-18T15:57:10;4.25;;;2.00;;
65759;SDS011;52496;51.082;5.066;2023-09-18T15:59:41;5.05;;;2.10;;
65759;SDS011;52496;51.082;5.066;2023-09-18T16:02:12;6.30;;;2.47;;
65759;SDS011;52496;51.082;5.066;2023-09-18T16:04:44;5.30;;;1.80;;
65759;SDS011;52496;51.082;5.066;2023-09-18T16:07:15;3.95;;;1.80;;
65759;SDS011;52496;51.082;5.066;2023-09-18T16:09:47;4.93;;;2.47;;
65759;SDS011;52496;51.082;5.066;2023-09-18T16:12:18;6.82;;;2.33;;
65759;SDS011;52496;51.082;5.066;2023-09-18T16:14:49;6.25;;;1.98;;
65759;SDS011;52496;51.082;5.066;2023-09-18T16:17:19;6.60;;;2.00;;
65759;SDS011;52496;51.082;5.066;2023-09-18T16:19:50;4.32;;;2.08;;
65759;SDS011;52496;51.082;5.066;2023-09-18T16:22:21;5.47;;;1.85;;
65759;SDS011;52496;51.082;5.066;2023-09-18T16:24:52;4.40;;;1.98;;
65759;SDS011;52496;51.082;5.066;2023-09-18T16:27:22;3.30;;;1.90;;
65759;SDS011;52496;51.082;5.066;2023-09-18T16:29:53;3.58;;;2.05;;
65759;SDS011;52496;51.082;5.066;2023-09-18T16:32:23;4.25;;;2.00;;
65759;SDS011;52496;51.082;5.066;2023-09-18T16:34:55;4.07;;;2.10;;
65759;SDS011;52496;51.082;5.066;2023-09-18T16:37:26;3.58;;;2.10;;
65759;SDS011;52496;51.082;5.066;2023-09-18T16:39:56;4.25;;;2.10;;
65759;SDS011;52496;51.082;5.066;2023-09-18T16:42:27;3.22;;;1.90;;
65759;SDS011;52496;51.082;5.066;2023-09-18T16:44:57;5.82;;;2.58;;
65759;SDS011;52496;51.082;5.066;2023-09-18T16:47:32;3.30;;;1.88;;
65759;SDS011;52496;51.082;5.066;2023-09-18T16:50:05;3.85;;;2.25;;
65759;SDS011;52496;51.082;5.066;2023-09-18T16:52:36;6.72;;;2.47;;
65759;SDS011;52496;51.082;5.066;2023-09-18T16:55:06;5.65;;;2.47;;
65759;SDS011;52496;51.082;5.066;2023-09-18T16:57:37;6.22;;;2.38;;
65759;SDS011;52496;51.082;5.066;2023-09-18T17:00:09;7.50;;;2.75;;
65759;SDS011;52496;51.082;5.066;2023-09-18T17:02:39;7.47;;;2.60;;
65759;SDS011;52496;51.082;5.066;2023-09-18T17:05:11;4.28;;;2.35;;
65759;SDS011;52496;51.082;5.066;2023-09-18T17:07:42;4.07;;;2.33;;
65759;SDS011;52496;51.082;5.066;2023-09-18T17:10:13;5.05;;;2.50;;
65759;SDS011;52496;51.082;5.066;2023-09-18T17:12:43;4.85;;;2.30;;
65759;SDS011;52496;51.082;5.066;2023-09-18T17:15:13;5.07;;;2.38;;
65759;SDS011;52496;51.082;5.066;2023-09-18T17:17:46;6.25;;;2.13;;
65759;SDS011;52496;51.082;5.066;2023-09-18T17:20:16;4.20;;;2.20;;
65759;SDS011;52496;51.082;5.066;2023-09-18T17:22:47;3.15;;;2.15;;
65759;SDS011;52496;51.082;5.066;2023-09-18T17:25:17;5.15;;;2.40;;
65759;SDS011;52496;51.082;5.066;2023-09-18T17:27:48;4.35;;;2.60;;
65759;SDS011;52496;51.082;5.066;2023-09-18T17:30:18;3.53;;;2.67;;
65759;SDS011;52496;51.082;5.066;2023-09-18T17:32:49;3.08;;;1.70;;
65759;SDS011;52496;51.082;5.066;2023-09-18T17:35:19;3.78;;;2.13;;
65759;SDS011;52496;51.082;5.066;2023-09-18T17:37:50;5.68;;;2.28;;
65759;SDS011;52496;51.082;5.066;2023-09-18T17:40:21;4.25;;;2.10;;
65759;SDS011;52496;51.082;5.066;2023-09-18T17:42:52;4.43;;;2.15;;
65759;SDS011;52496;51.082;5.066;2023-09-18T17:45:23;3.38;;;1.98;;
65759;SDS011;52496;51.082;5.066;2023-09-18T17:47:53;5.25;;;2.28;;
65759;SDS011;52496;51.082;5.066;2023-09-18T17:50:24;6.78;;;2.38;;
65759;SDS011;52496;51.082;5.066;2023-09-18T17:52:54;6.28;;;2.22;;
65759;SDS011;52496;51.082;5.066;2023-09-18T17:55:25;4.47;;;2.38;;
65759;SDS011;52496;51.082;5.066;2023-09-18T17:57:55;5.40;;;2.22;;
65759;SDS011;52496;51.082;5.066;2023-09-18T18:00:25;3.67;;;2.20;;
65759;SDS011;52496;51.082;5.066;2023-09-18T18:02:57;3.80;;;1.73;;
65759;SDS011;52496;51.082;5.066;2023-09-18T18:05:27;2.88;;;1.70;;
65759;SDS011;52496;51.082;5.066;2023-09-18T18:07:58;2.67;;;1.85;;
65759;SDS011;52496;51.082;5.066;2023-09-18T18:10:28;4.90;;;1.90;;
65759;SDS011;52496;51.082;5.066;2023-09-18T18:12:59;4.28;;;2.20;;
65759;SDS011;52496;51.082;5.066;2023-09-18T18:15:30;4.32;;;1.75;;
65759;SDS011;52496;51.082;5.066;2023-09-18T18:18:00;3.05;;;2.05;;
65759;SDS011;52496;51.082;5.066;2023-09-18T18:20:30;4.53;;;1.83;;
65759;SDS011;52496;51.082;5.066;2023-09-18T18:23:01;2.60;;;1.63;;
65759;SDS011;52496;51.082;5.066;2023-09-18T18:25:34;3.28;;;1.60;;
65759;SDS011;52496;51.082;5.066;2023-09-18T18:28:06;4.20;;;1.73;;
65759;SDS011;52496;51.082;5.066;2023-09-18T18:30:39;2.85;;;1.77;;
65759;SDS011;52496;51.082;5.066;2023-09-18T18:33:09;3.20;;;1.67;;
65759;SDS011;52496;51.082;5.066;2023-09-18T18:35:39;4.88;;;2.08;;
65759;SDS011;52496;51.082;5.066;2023-09-18T18:38:10;5.03;;;1.77;;
65759;SDS011;52496;51.082;5.066;2023-09-18T18:40:40;2.88;;;1.48;;